createdAt,value
2022-10-22T00:01:11.059Z,97471.88
2022-10-22T00:03:44.451Z,97468.91
2022-10-22T00:06:13.816Z,97464.43
2022-10-22T00:08:44.920Z,97460.23
2022-10-22T00:11:17.893Z,97455.45
2022-10-22T00:13:49.318Z,97452.91
2022-10-22T00:16:20.390Z,97448.63
2022-10-22T00:18:51.505Z,97441.95
2022-10-22T00:21:22.577Z,97443.32
2022-10-22T00:23:53.713Z,97450.77
2022-10-22T00:26:25.142Z,97461.39
2022-10-22T00:28:56.603Z,97469.18
2022-10-22T00:31:27.656Z,97478.09
2022-10-22T00:33:58.668Z,97476.77
2022-10-22T00:36:28.065Z,97473.64
2022-10-22T00:38:58.809Z,97475.96
2022-10-22T00:41:28.297Z,97484.39
2022-10-22T00:44:02.174Z,97482.77
2022-10-22T00:46:33.365Z,97483.32
2022-10-22T00:49:04.056Z,97493.92
2022-10-22T00:51:36.917Z,97484.81
2022-10-22T00:54:10.065Z,97474.06
2022-10-22T00:56:40.955Z,97473.16
2022-10-22T00:59:10.563Z,97471.17
2022-10-22T01:01:39.925Z,97467.64
2022-10-22T01:04:11.087Z,97464.69
2022-10-22T01:06:42.553Z,97453.28
2022-10-22T01:09:23.124Z,97447.85
2022-10-22T01:12:11.351Z,97448.95
2022-10-22T01:14:54.709Z,97442.91
2022-10-22T01:17:33.170Z,97449.67
2022-10-22T01:20:15.432Z,97447.15
2022-10-22T01:22:55.460Z,97442.42
2022-10-22T01:25:35.724Z,97451.10
2022-10-22T01:28:19.236Z,97445.19
2022-10-22T01:30:50.490Z,97448.56
2022-10-22T01:33:23.967Z,97460.39
2022-10-22T01:35:56.046Z,97462.79
2022-10-22T01:38:28.210Z,97460.52
2022-10-22T01:40:59.958Z,97467.20
2022-10-22T01:43:30.983Z,97458.80
2022-10-22T01:46:04.760Z,97459.34
2022-10-22T01:48:47.106Z,97455.08
2022-10-22T01:51:31.332Z,97452.77
2022-10-22T01:54:10.419Z,97450.20
2022-10-22T01:56:51.536Z,97448.48
2022-10-22T01:59:33.947Z,97446.83
2022-10-22T02:02:13.887Z,97445.61
2022-10-22T02:04:50.493Z,97446.00
2022-10-22T02:07:28.059Z,97441.48
2022-10-22T02:10:00.882Z,97440.76
2022-10-22T02:12:34.986Z,97436.58
2022-10-22T02:15:08.724Z,97428.42
2022-10-22T02:17:41.049Z,97429.00
2022-10-22T02:20:17.144Z,97424.92
2022-10-22T02:22:48.484Z,97416.45
2022-10-22T02:25:22.409Z,97408.97
2022-10-22T02:28:03.823Z,97408.60
2022-10-22T02:30:37.146Z,97403.14
2022-10-22T02:33:14.231Z,97398.66
2022-10-22T02:35:46.857Z,97403.38
2022-10-22T02:38:18.709Z,97407.12
2022-10-22T02:40:49.903Z,97415.64
2022-10-22T02:43:22.052Z,97412.81
2022-10-22T02:45:53.239Z,97413.75
2022-10-22T02:48:24.136Z,97418.34
2022-10-22T02:50:54.988Z,97417.31
2022-10-22T02:53:24.428Z,97420.10
2022-10-22T02:55:55.487Z,97428.16
2022-10-22T02:58:26.408Z,97421.06
2022-10-22T03:00:57.299Z,97414.67
2022-10-22T03:03:28.282Z,97414.31
2022-10-22T03:05:57.722Z,97424.87
2022-10-22T03:08:28.792Z,97431.75
2022-10-22T03:10:59.925Z,97434.66
2022-10-22T03:13:29.140Z,97433.55
2022-10-22T03:16:00.283Z,97425.39
2022-10-22T03:18:29.605Z,97427.77
2022-10-22T03:21:11.750Z,97428.06
2022-10-22T03:23:44.031Z,97428.61
2022-10-22T03:26:16.441Z,97413.25
2022-10-22T03:28:48.554Z,97399.67
2022-10-22T03:31:19.431Z,97394.86
2022-10-22T03:33:50.655Z,97390.38
2022-10-22T03:36:20.242Z,97380.42
2022-10-22T03:38:51.301Z,97380.14
2022-10-22T03:41:22.183Z,97392.20
2022-10-22T03:43:53.230Z,97395.71
2022-10-22T03:46:24.162Z,97400.49
2022-10-22T03:48:53.520Z,97405.14
2022-10-22T03:51:24.434Z,97415.90
2022-10-22T03:53:55.370Z,97414.70
2022-10-22T03:56:25.068Z,97427.77
2022-10-22T03:58:58.821Z,97437.14
2022-10-22T04:01:31.239Z,97431.48
2022-10-22T04:04:02.147Z,97433.27
2022-10-22T04:06:31.547Z,97437.63
2022-10-22T04:09:02.713Z,97439.73
2022-10-22T04:11:34.000Z,97450.83
2022-10-22T04:14:03.332Z,97455.83
2022-10-22T04:16:34.321Z,97452.20
2022-10-22T04:19:05.411Z,97447.15
2022-10-22T04:21:40.216Z,97436.42
2022-10-22T04:24:11.136Z,97426.98
2022-10-22T04:26:42.352Z,97424.10
2022-10-22T04:29:15.915Z,97416.27
2022-10-22T04:31:47.460Z,97416.48
2022-10-22T04:34:18.555Z,97419.40
2022-10-22T04:36:49.708Z,97426.09
2022-10-22T04:39:19.220Z,97427.27
2022-10-22T04:41:50.210Z,97426.83
2022-10-22T04:44:20.968Z,97429.36
2022-10-22T04:46:52.017Z,97431.09
2022-10-22T04:49:22.748Z,97442.42
2022-10-22T04:51:54.743Z,97457.30
2022-10-22T04:54:29.060Z,97467.45
2022-10-22T04:57:04.442Z,97460.55
2022-10-22T04:59:33.828Z,97462.07
2022-10-22T05:02:04.778Z,97451.89
2022-10-22T05:04:38.619Z,97448.94
2022-10-22T05:07:07.855Z,97451.67
2022-10-22T05:09:39.157Z,97453.98
2022-10-22T05:12:10.271Z,97454.59
2022-10-22T05:14:44.034Z,97467.77
2022-10-22T05:17:15.667Z,97463.36
2022-10-22T05:19:45.008Z,97455.73
2022-10-22T05:22:15.935Z,97462.39
2022-10-22T05:24:45.423Z,97462.03
2022-10-22T05:27:16.153Z,97458.88
2022-10-22T05:29:45.622Z,97448.90
2022-10-22T05:32:16.634Z,97441.73
2022-10-22T05:34:46.044Z,97443.77
2022-10-22T05:37:16.981Z,97448.20
2022-10-22T05:39:46.438Z,97441.52
2022-10-22T05:42:17.392Z,97434.96
2022-10-22T05:44:49.222Z,97439.99
2022-10-22T05:47:20.024Z,97442.72
2022-10-22T05:49:51.446Z,97438.23
2022-10-22T05:52:22.309Z,97449.25
2022-10-22T05:54:53.276Z,97453.95
2022-10-22T05:57:22.550Z,97444.89
2022-10-22T05:59:53.456Z,97445.42
2022-10-22T06:02:24.418Z,97455.93
2022-10-22T06:04:55.249Z,97459.13
2022-10-22T06:07:26.255Z,97461.34
2022-10-22T06:09:55.952Z,97470.48
2022-10-22T06:12:27.096Z,97478.58
2022-10-22T06:14:56.544Z,97469.90
2022-10-22T06:17:27.532Z,97471.33
2022-10-22T06:19:58.708Z,97482.56
2022-10-22T06:22:29.885Z,97487.81
2022-10-22T06:25:01.132Z,97484.59
2022-10-22T06:27:32.163Z,97495.25
2022-10-22T06:30:03.272Z,97503.30
2022-10-22T06:32:34.500Z,97500.02
2022-10-22T06:35:05.891Z,97493.93
2022-10-22T06:37:36.970Z,97493.55
2022-10-22T06:40:11.031Z,97491.87
2022-10-22T06:42:42.163Z,97493.17
2022-10-22T06:45:14.188Z,97495.48
2022-10-22T06:47:45.109Z,97504.11
2022-10-22T06:50:14.433Z,97499.95
2022-10-22T06:52:45.140Z,97496.83
2022-10-22T06:55:14.528Z,97502.61
2022-10-22T06:57:45.461Z,97510.40
2022-10-22T07:00:17.336Z,97521.84
2022-10-22T07:02:57.653Z,97531.52
2022-10-22T07:05:34.722Z,97536.55
2022-10-22T07:08:05.828Z,97538.30
2022-10-22T07:10:36.683Z,97543.13
2022-10-22T07:13:06.052Z,97543.44
2022-10-22T07:15:36.854Z,97546.02
2022-10-22T07:18:06.315Z,97550.16
2022-10-22T07:20:37.034Z,97553.86
2022-10-22T07:23:07.889Z,97556.23
2022-10-22T07:25:38.748Z,97543.36
2022-10-22T07:28:10.076Z,97537.84
2022-10-22T07:30:42.195Z,97543.55
2022-10-22T07:33:13.910Z,97549.34
2022-10-22T07:35:45.713Z,97553.06
2022-10-22T07:38:16.612Z,97557.64
2022-10-22T07:40:47.542Z,97552.67
2022-10-22T07:43:18.839Z,97554.68
2022-10-22T07:45:48.628Z,97551.48
2022-10-22T07:48:19.880Z,97547.02
2022-10-22T07:50:51.812Z,97543.23
2022-10-22T07:53:22.986Z,97538.02
2022-10-22T07:55:54.658Z,97534.19
2022-10-22T07:58:25.676Z,97540.88
2022-10-22T08:00:57.563Z,97539.34
2022-10-22T08:03:29.250Z,97540.00
2022-10-22T08:06:01.123Z,97544.74
2022-10-22T08:08:32.419Z,97537.23
2022-10-22T08:11:04.720Z,97542.27
2022-10-22T08:13:35.616Z,97551.76
2022-10-22T08:16:07.230Z,97550.30
2022-10-22T08:18:38.715Z,97544.06
2022-10-22T08:21:09.879Z,97541.89
2022-10-22T08:23:40.931Z,97543.18
2022-10-22T08:26:12.301Z,97544.03
2022-10-22T08:28:43.419Z,97544.45
2022-10-22T08:31:14.453Z,97543.13
2022-10-22T08:33:45.517Z,97543.98
2022-10-22T08:36:16.513Z,97547.48
2022-10-22T08:38:47.487Z,97550.00
2022-10-22T08:41:17.624Z,97550.25
2022-10-22T08:44:12.000Z,97553.17
2022-10-22T08:47:10.853Z,97558.88
2022-10-22T08:49:44.260Z,97553.33
2022-10-22T08:52:17.934Z,97550.81
2022-10-22T08:54:54.975Z,97553.64
2022-10-22T08:57:52.448Z,97563.06
2022-10-22T09:00:32.057Z,97569.92
2022-10-22T09:03:14.731Z,97580.08
2022-10-22T09:05:56.921Z,97584.02
2022-10-22T09:08:28.248Z,97584.23
2022-10-22T09:11:08.121Z,97584.20
2022-10-22T09:13:39.886Z,97586.73
2022-10-22T09:16:20.025Z,97592.92
2022-10-22T09:19:02.937Z,97599.98
2022-10-22T09:21:44.902Z,97597.86
2022-10-22T09:24:23.288Z,97602.86
2022-10-22T09:26:54.559Z,97598.61
2022-10-22T09:29:32.731Z,97599.88
2022-10-22T09:32:03.807Z,97597.15
2022-10-22T09:34:46.700Z,97601.11
2022-10-22T09:37:20.891Z,97605.16
2022-10-22T09:39:55.048Z,97612.55
2022-10-22T09:42:26.264Z,97614.80
2022-10-22T09:45:00.490Z,97610.77
2022-10-22T09:48:00.416Z,97607.44
2022-10-22T09:50:40.099Z,97603.44
2022-10-22T09:53:19.682Z,97605.87
2022-10-22T09:58:42.299Z,97600.55
2022-10-22T10:01:21.087Z,97600.71
2022-10-22T10:03:52.964Z,97592.86
2022-10-22T10:06:24.957Z,97592.52
2022-10-22T10:08:57.307Z,97593.23
2022-10-22T10:11:37.644Z,97586.16
2022-10-22T10:14:20.600Z,97584.29
2022-10-22T10:17:00.106Z,97583.98
2022-10-22T10:19:43.383Z,97585.56
2022-10-22T10:22:19.543Z,97592.92
2022-10-22T10:25:13.977Z,97592.04
2022-10-22T10:27:50.822Z,97587.05
2022-10-22T10:30:25.052Z,97581.38
2022-10-22T10:33:12.298Z,97576.48
2022-10-22T10:35:55.361Z,97574.23
2022-10-22T10:38:40.472Z,97581.23
2022-10-22T10:41:20.066Z,97579.19
2022-10-22T10:44:02.775Z,97575.17
2022-10-22T10:46:43.775Z,97579.05
2022-10-22T10:49:20.827Z,97572.94
2022-10-22T10:51:59.695Z,97576.96
2022-10-22T10:57:20.550Z,97580.64
2022-10-22T11:00:01.400Z,97581.17
2022-10-22T11:05:39.269Z,97572.64
2022-10-22T11:08:15.788Z,97572.34
2022-10-22T11:10:51.187Z,97572.89
2022-10-22T11:13:28.120Z,97576.06
2022-10-22T11:16:04.969Z,97576.59
2022-10-22T11:18:42.378Z,97565.55
2022-10-22T11:21:23.690Z,97563.30
2022-10-22T11:24:02.164Z,97564.11
2022-10-22T11:26:42.913Z,97567.03
2022-10-22T11:29:18.720Z,97567.33
2022-10-22T11:31:50.437Z,97559.24
2022-10-22T11:34:33.734Z,97561.73
2022-10-22T11:37:06.271Z,97555.41
2022-10-22T11:39:42.509Z,97558.42
2022-10-22T11:42:19.877Z,97557.13
2022-10-22T11:47:29.650Z,97557.19
2022-10-22T11:50:12.519Z,97557.85
2022-10-22T11:52:55.141Z,97554.30
2022-10-22T11:55:45.967Z,97551.98
2022-10-22T11:58:36.209Z,97552.42
2022-10-22T12:01:29.556Z,97558.71
2022-10-22T12:04:23.425Z,97564.74
2022-10-22T12:07:29.869Z,97574.52
2022-10-22T12:10:01.532Z,97572.98
2022-10-22T12:12:39.910Z,97570.71
2022-10-22T12:15:27.680Z,97578.17
2022-10-22T12:18:06.558Z,97581.73
2022-10-22T12:20:37.455Z,97573.16
2022-10-22T12:23:10.319Z,97573.16
2022-10-22T12:25:41.302Z,97569.06
2022-10-22T12:28:16.201Z,97562.89
2022-10-22T12:30:48.233Z,97560.10
2022-10-22T12:33:25.624Z,97556.35
2022-10-22T12:35:58.828Z,97550.69
2022-10-22T12:38:29.865Z,97550.00
2022-10-22T12:41:01.108Z,97542.81
2022-10-22T12:43:33.600Z,97536.17
2022-10-22T12:46:04.523Z,97535.13
2022-10-22T12:48:41.311Z,97541.59
2022-10-22T12:51:20.097Z,97546.23
2022-10-22T12:53:54.455Z,97550.95
2022-10-22T12:56:27.830Z,97557.57
2022-10-22T12:59:02.927Z,97557.37
2022-10-22T13:01:37.981Z,97565.65
2022-10-22T13:04:19.824Z,97564.23
2022-10-22T13:06:52.347Z,97569.54
2022-10-22T13:09:27.537Z,97576.90
2022-10-22T13:12:05.415Z,97580.53
2022-10-22T13:14:38.600Z,97584.19
2022-10-22T13:17:12.869Z,97587.36
2022-10-22T13:19:47.530Z,97588.48
2022-10-22T13:22:33.961Z,97588.09
2022-10-22T13:25:22.877Z,97590.86
2022-10-22T13:27:56.784Z,97590.30
2022-10-22T13:30:29.171Z,97590.85
2022-10-22T13:33:01.866Z,97590.02
2022-10-22T13:35:36.172Z,97592.02
2022-10-22T13:38:16.626Z,97594.20
2022-10-22T13:40:47.754Z,97592.98
2022-10-22T13:43:19.272Z,97595.19
2022-10-22T13:45:54.341Z,97597.48
2022-10-22T13:48:27.392Z,97599.44
2022-10-22T13:50:58.541Z,97602.45
2022-10-22T13:53:31.466Z,97605.41
2022-10-22T13:56:02.586Z,97604.52
2022-10-22T13:58:31.922Z,97606.88
2022-10-22T14:01:08.747Z,97605.68
2022-10-22T14:03:40.509Z,97600.97
2022-10-22T14:06:15.578Z,97596.59
2022-10-22T14:08:50.731Z,97602.52
2022-10-22T14:11:21.727Z,97592.86
2022-10-22T14:13:52.921Z,97596.80
2022-10-22T14:16:24.317Z,97597.65
2022-10-22T14:18:56.505Z,97597.11
2022-10-22T14:21:29.999Z,97593.13
2022-10-22T14:24:01.050Z,97590.25
2022-10-22T14:26:35.093Z,97586.98
2022-10-22T14:29:10.697Z,97587.46
2022-10-22T14:31:44.710Z,97586.30
2022-10-22T14:34:17.528Z,97584.36
2022-10-22T14:36:48.535Z,97587.70
2022-10-22T14:39:21.591Z,97590.96
2022-10-22T14:41:52.736Z,97597.34
2022-10-22T14:44:24.370Z,97595.75
2022-10-22T14:46:56.324Z,97596.43
2022-10-22T14:49:27.364Z,97595.02
2022-10-22T14:51:58.191Z,97598.73
2022-10-22T14:54:29.389Z,97592.16
2022-10-22T14:57:00.492Z,97599.34
2022-10-22T14:59:31.903Z,97595.06
2022-10-22T15:02:03.034Z,97597.25
2022-10-22T15:04:34.212Z,97602.11
2022-10-22T15:07:05.200Z,97609.47
2022-10-22T15:09:36.186Z,97609.55
2022-10-22T15:12:07.662Z,97608.89
2022-10-22T15:14:38.583Z,97606.22
2022-10-22T15:17:09.737Z,97602.38
2022-10-22T15:19:40.654Z,97604.63
2022-10-22T15:22:11.828Z,97604.80
2022-10-22T15:24:44.694Z,97612.64
2022-10-22T15:27:15.676Z,97611.45
2022-10-22T15:29:46.558Z,97616.75
2022-10-22T15:32:17.711Z,97622.71
2022-10-22T15:34:49.002Z,97621.61
2022-10-22T15:37:20.151Z,97625.45
2022-10-22T15:39:51.252Z,97630.41
2022-10-22T15:42:23.332Z,97634.54
2022-10-22T15:45:00.191Z,97643.60
2022-10-22T15:47:31.198Z,97649.79
2022-10-22T15:50:02.275Z,97654.45
2022-10-22T15:52:33.700Z,97655.63
2022-10-22T15:55:07.075Z,97652.14
2022-10-22T15:57:38.407Z,97656.71
2022-10-22T16:00:11.593Z,97658.61
2022-10-22T16:02:42.789Z,97662.46
2022-10-22T16:05:14.107Z,97671.29
2022-10-22T16:07:45.169Z,97674.02
2022-10-22T16:10:17.094Z,97680.34
2022-10-22T16:12:47.846Z,97677.48
2022-10-22T16:15:18.864Z,97684.09
2022-10-22T16:17:48.114Z,97688.08
2022-10-22T16:20:19.318Z,97689.72
2022-10-22T16:22:53.092Z,97689.48
2022-10-22T16:25:24.712Z,97690.91
2022-10-22T16:27:55.990Z,97693.62
2022-10-22T16:30:26.983Z,97702.11
2022-10-22T16:32:58.136Z,97705.24
2022-10-22T16:35:29.046Z,97708.63
2022-10-22T16:38:00.162Z,97714.64
2022-10-22T16:40:29.662Z,97717.60
2022-10-22T16:43:00.704Z,97721.30
2022-10-22T16:45:31.593Z,97721.63
2022-10-22T16:48:00.848Z,97729.40
2022-10-22T16:50:31.587Z,97733.70
2022-10-22T16:53:02.475Z,97737.90
2022-10-22T16:55:36.435Z,97742.18
2022-10-22T16:58:08.048Z,97746.48
2022-10-22T17:00:39.336Z,97749.29
2022-10-22T17:03:12.342Z,97750.24
2022-10-22T17:05:43.340Z,97757.13
2022-10-22T17:08:14.682Z,97759.11
2022-10-22T17:10:46.082Z,97764.10
2022-10-22T17:13:17.014Z,97762.16
2022-10-22T17:15:46.428Z,97774.23
2022-10-22T17:18:17.810Z,97776.58
2022-10-22T17:20:49.261Z,97781.33
2022-10-22T17:23:20.191Z,97785.00
2022-10-22T17:25:49.847Z,97786.27
2022-10-22T17:28:19.285Z,97794.10
2022-10-22T17:30:51.030Z,97797.92
2022-10-22T17:33:21.874Z,97799.06
2022-10-22T17:35:52.821Z,97802.52
2022-10-22T17:38:24.149Z,97804.39
2022-10-22T17:40:55.195Z,97803.90
2022-10-22T17:43:26.213Z,97805.67
2022-10-22T17:46:05.659Z,97805.75
2022-10-22T17:48:36.966Z,97808.59
2022-10-22T17:51:11.395Z,97815.93
2022-10-22T17:53:45.789Z,97815.13
2022-10-22T17:56:19.462Z,97817.95
2022-10-22T17:58:51.139Z,97824.25
2022-10-22T18:01:25.382Z,97831.47
2022-10-22T18:03:59.885Z,97832.41
2022-10-22T18:06:31.578Z,97831.64
2022-10-22T18:09:04.970Z,97832.02
2022-10-22T18:11:37.842Z,97831.41
2022-10-22T18:14:09.429Z,97828.98
2022-10-22T18:16:40.511Z,97833.72
2022-10-22T18:19:12.225Z,97837.80
2022-10-22T18:21:43.332Z,97839.89
2022-10-22T18:24:16.135Z,97841.00
2022-10-22T18:26:47.325Z,97841.25
2022-10-22T18:29:20.455Z,97836.52
2022-10-22T18:31:52.581Z,97834.41
2022-10-22T18:34:24.080Z,97834.17
2022-10-22T18:36:55.498Z,97832.00
2022-10-22T18:39:24.807Z,97836.86
2022-10-22T18:41:55.633Z,97837.99
2022-10-22T18:44:26.385Z,97839.14
2022-10-22T18:46:57.404Z,97845.23
2022-10-22T18:49:28.465Z,97846.69
2022-10-22T18:51:59.681Z,97847.73
2022-10-22T18:54:29.069Z,97847.80
2022-10-22T18:57:02.831Z,97850.73
2022-10-22T18:59:34.315Z,97846.98
2022-10-22T19:02:05.311Z,97850.16
2022-10-22T19:04:37.081Z,97849.84
2022-10-22T19:09:40.536Z,97852.27
2022-10-22T19:12:15.058Z,97857.84
2022-10-22T19:14:46.062Z,97860.23
2022-10-22T19:17:17.370Z,97862.83
2022-10-22T19:19:46.810Z,97867.41
2022-10-22T19:22:17.781Z,97875.14
2022-10-22T19:24:49.210Z,97882.29
2022-10-22T19:27:20.442Z,97881.30
2022-10-22T19:29:51.512Z,97884.64
2022-10-22T19:32:22.815Z,97883.62
2022-10-22T19:34:53.941Z,97885.12
2022-10-22T19:37:23.355Z,97888.17
2022-10-22T19:39:54.557Z,97890.30
2022-10-22T19:42:25.732Z,97892.81
2022-10-22T19:44:55.103Z,97900.55
2022-10-22T19:47:26.407Z,97906.16
2022-10-22T19:49:57.308Z,97911.45
2022-10-22T19:52:28.545Z,97915.90
2022-10-22T19:55:00.072Z,97919.86
2022-10-22T19:57:31.162Z,97919.58
2022-10-22T20:00:02.069Z,97924.53
2022-10-22T20:02:33.495Z,97926.59
2022-10-22T20:05:04.772Z,97930.40
2022-10-22T20:07:36.214Z,97926.05
2022-10-22T20:10:08.570Z,97925.21
2022-10-22T20:12:39.333Z,97929.50
2022-10-22T20:15:11.933Z,97930.70
2022-10-22T20:17:42.923Z,97933.00
2022-10-22T20:20:14.212Z,97932.92
2022-10-22T20:22:45.032Z,97936.25
2022-10-22T20:25:16.299Z,97932.48
2022-10-22T20:27:47.353Z,97935.14
2022-10-22T20:30:19.628Z,97937.02
2022-10-22T20:32:50.699Z,97936.14
2022-10-22T20:35:21.651Z,97938.42
2022-10-22T20:37:53.142Z,97933.58
2022-10-22T20:40:26.670Z,97936.88
2022-10-22T20:42:57.635Z,97942.52
2022-10-22T20:45:29.412Z,97940.11
2022-10-22T20:48:03.465Z,97941.69
2022-10-22T20:50:34.444Z,97936.70
2022-10-22T20:53:03.757Z,97940.05
2022-10-22T20:55:34.585Z,97942.33
2022-10-22T20:58:05.602Z,97939.16
2022-10-22T21:00:39.287Z,97940.16
2022-10-22T21:03:10.116Z,97939.98
2022-10-22T21:05:39.569Z,97940.13
2022-10-22T21:08:17.261Z,97937.05
2022-10-22T21:10:49.203Z,97941.98
2022-10-22T21:13:20.129Z,97941.53
2022-10-22T21:15:49.766Z,97937.77
2022-10-22T21:18:20.796Z,97943.73
2022-10-22T21:20:51.818Z,97943.85
2022-10-22T21:23:23.194Z,97944.64
2022-10-22T21:25:58.581Z,97943.42
2022-10-22T21:31:01.370Z,97942.65
2022-10-22T21:33:32.698Z,97945.45
2022-10-22T21:36:03.600Z,97947.09
2022-10-22T21:38:32.958Z,97947.63
2022-10-22T21:41:07.269Z,97957.73
2022-10-22T21:43:39.316Z,97963.20
2022-10-22T21:46:12.325Z,97962.84
2022-10-22T21:48:43.692Z,97957.42
2022-10-22T21:51:16.688Z,97954.75
2022-10-22T21:53:47.734Z,97949.08
2022-10-22T21:56:21.115Z,97943.49
2022-10-22T21:58:52.016Z,97943.50
2022-10-22T22:01:22.998Z,97940.73
2022-10-22T22:03:54.678Z,97940.37
2022-10-22T22:06:30.827Z,97945.20
2022-10-22T22:09:05.745Z,97948.64
2022-10-22T22:11:36.774Z,97946.14
2022-10-22T22:14:06.139Z,97954.26
2022-10-22T22:16:37.269Z,97956.61
2022-10-22T22:19:10.837Z,97960.57
2022-10-22T22:21:42.763Z,97961.46
2022-10-22T22:24:15.327Z,97961.75
2022-10-22T22:26:46.630Z,97966.29
2022-10-22T22:29:15.822Z,97965.33
2022-10-22T22:31:47.158Z,97960.23
2022-10-22T22:34:19.030Z,97959.51
2022-10-22T22:36:50.439Z,97954.45
2022-10-22T22:39:23.670Z,97951.27
2022-10-22T22:41:54.572Z,97950.31
2022-10-22T22:44:25.500Z,97950.70
2022-10-22T22:46:56.431Z,97962.70
2022-10-22T22:49:25.767Z,97969.52
2022-10-22T22:51:55.399Z,97975.27
2022-10-22T22:54:26.317Z,97977.12
2022-10-22T22:56:58.835Z,97975.88
2022-10-22T22:59:30.126Z,97977.54
2022-10-22T23:02:01.326Z,97977.45
2022-10-22T23:04:32.833Z,97972.73
2022-10-22T23:07:03.702Z,97970.45
2022-10-22T23:09:34.854Z,97970.25
2022-10-22T23:12:06.378Z,97967.41
2022-10-22T23:14:37.464Z,97963.16
2022-10-22T23:17:06.941Z,97966.09
2022-10-22T23:19:37.764Z,97964.02
2022-10-22T23:22:08.912Z,97964.29
2022-10-22T23:24:40.487Z,97965.20
2022-10-22T23:27:12.600Z,97963.34
2022-10-22T23:29:43.795Z,97967.21
2022-10-22T23:32:14.263Z,97963.02
2022-10-22T23:34:45.228Z,97956.08
2022-10-22T23:37:16.256Z,97947.98
2022-10-22T23:39:47.147Z,97951.05
2022-10-22T23:42:16.732Z,97951.70
2022-10-22T23:44:47.607Z,97952.84
2022-10-22T23:47:18.570Z,97952.23
2022-10-22T23:49:49.661Z,97944.59
2022-10-22T23:52:20.665Z,97946.13
2022-10-22T23:54:50.734Z,97950.69
2022-10-22T23:57:21.523Z,97958.14
2022-10-22T23:59:50.958Z,97961.91
